Portada
METAR-TAF:

METAR-TAF

Aeropuertos :

Bogotá, Colombia

Aeropuerto Internacional El Dorado

latitud: 04-43N, longitud: 074-09W, altitud: 2547 m

Observación

El informe se hizo hace 34 minutos, a las 01:00 UTC
Viento 6 kt del este-noreste
Temperatura
Presión 1025 hPa
Visibilidad 10 km o más

METAR: SKBO 240100Z 06006KT 9999 NSC 14/05A3026

Hora: 20:34 (01:34 UTC)

Pronóstico

El informe se hizo hace 2 horas y 34 minutos, a las 23:00 UTC
Pronóstico válido del 24 a las 00 UTC al 24 a las 24 UTC
Viento 5 kt del noreste
Visibilidad 10 km o más
Nubes dispersas a una altura de 2300 ft
Nubes dispersas a una altura de 20000 ft
Temporalmente
del 24 a las 09 UTC al 24 a las 12 UTC
Visibilidad: 8000 m
Nubes dispersas a una altura de 1500 ft
Niebla baja

TAF: SKBO 232300Z 2400/2424 05005KT 9999 SCT023 SCT200 TEMPO 2409/2412 8000 MIFG SCT015 TX21/2418Z TN05/2411Z

Observaciones y pronósticos meteorológicos de más de 4000 aeropuertos (mensajes METAR y TAF).

Los puntos amarillos y rojos representan las estaciones disponibles.

Ponga el ratón en el punto deseado para ver el nombre de la estación.

Haga clic para ver las observaciones y los pronósticos meteorológicos.

Para cambiar el mapa : haga clic en los botones verdes con una cruz de color negro para hacer un zoom, en el botón verde con un guión para alejar o en las flechas verdes para mapas adyacentes.


METAR-TAF: